createdAt,value
2022-08-19T00:02:31.482Z,11.73
2022-08-19T00:05:51.885Z,10.45
2022-08-19T00:09:05.525Z,11.50
2022-08-19T00:12:20.218Z,10.93
2022-08-19T00:19:07.619Z,10.68
2022-08-19T00:22:19.044Z,11.43
2022-08-19T00:26:01.155Z,11.30
2022-08-19T00:29:28.215Z,11.38
2022-08-19T00:32:35.770Z,11.13
2022-08-19T00:36:12.722Z,11.27
2022-08-19T00:40:03.435Z,11.38
2022-08-19T00:43:32.522Z,11.52
2022-08-19T00:46:58.214Z,12.10
2022-08-19T00:50:06.765Z,12.18
2022-08-19T00:53:27.330Z,12.02
2022-08-19T01:00:17.490Z,12.02
2022-08-19T01:03:57.334Z,11.30
2022-08-19T01:07:22.648Z,11.70
2022-08-19T01:10:42.972Z,12.77
2022-08-19T01:14:05.757Z,11.65
2022-08-19T01:21:14.481Z,11.55
2022-08-19T01:24:46.666Z,11.35
2022-08-19T01:28:39.739Z,11.32
2022-08-19T01:32:03.487Z,12.43
2022-08-19T01:35:18.674Z,12.27
2022-08-19T01:38:46.939Z,11.15
2022-08-19T01:42:08.845Z,12.73
2022-08-19T01:45:15.836Z,14.05
2022-08-19T01:48:23.135Z,12.75
2022-08-19T01:51:39.590Z,13.50
2022-08-19T01:54:50.474Z,15.38
2022-08-19T01:58:09.879Z,13.23
2022-08-19T02:01:21.527Z,13.23
2022-08-19T02:04:32.890Z,14.43
2022-08-19T02:07:44.852Z,13.57
2022-08-19T02:11:03.962Z,13.50
2022-08-19T02:14:20.022Z,12.98
2022-08-19T02:17:41.445Z,14.23
2022-08-19T02:21:07.475Z,14.68
2022-08-19T02:24:18.383Z,14.50
2022-08-19T02:27:32.400Z,14.93
2022-08-19T02:30:47.886Z,14.80
2022-08-19T02:34:00.412Z,15.30
2022-08-19T02:37:09.937Z,14.88
2022-08-19T02:40:15.904Z,16.02
2022-08-19T02:43:29.849Z,13.90
2022-08-19T02:46:43.418Z,15.57
2022-08-19T02:50:05.019Z,18.05
2022-08-19T02:53:24.565Z,16.42
2022-08-19T02:56:38.971Z,15.77
2022-08-19T02:59:49.837Z,16.33
2022-08-19T03:03:02.507Z,15.68
2022-08-19T03:06:24.216Z,16.15
2022-08-19T03:09:50.812Z,17.38
2022-08-19T03:13:05.194Z,16.63
2022-08-19T03:19:51.397Z,16.65
2022-08-19T03:23:11.793Z,17.35
2022-08-19T03:26:25.432Z,17.13
2022-08-19T03:30:11.696Z,18.35
2022-08-19T03:33:28.737Z,17.67
2022-08-19T03:36:44.097Z,16.98
2022-08-19T03:39:53.848Z,17.63
2022-08-19T03:43:16.801Z,19.40
2022-08-19T03:46:27.738Z,17.42
2022-08-19T03:49:57.881Z,17.80
2022-08-19T03:53:09.564Z,17.98
2022-08-19T03:56:21.236Z,18.67
2022-08-19T03:59:42.909Z,19.05
2022-08-19T04:03:00.543Z,18.70
2022-08-19T04:06:22.073Z,19.33
2022-08-19T04:09:45.287Z,18.55
2022-08-19T04:12:53.937Z,18.38
2022-08-19T04:16:10.210Z,19.08
2022-08-19T04:19:22.430Z,18.23
2022-08-19T04:22:32.268Z,19.20
2022-08-19T04:25:51.445Z,18.42
2022-08-19T04:29:12.825Z,20.30
2022-08-19T04:32:25.446Z,19.17
2022-08-19T04:35:43.292Z,20.02
2022-08-19T04:39:02.275Z,19.70
2022-08-19T04:42:31.790Z,19.98
2022-08-19T04:45:43.971Z,18.77
2022-08-19T04:49:10.401Z,19.02
2022-08-19T04:52:24.895Z,19.08
2022-08-19T04:55:44.999Z,19.00
2022-08-19T04:59:05.791Z,18.42
2022-08-19T05:02:17.464Z,19.05
2022-08-19T05:05:44.511Z,18.95
2022-08-19T05:08:52.681Z,19.20
2022-08-19T05:12:07.777Z,19.50
2022-08-19T05:15:19.928Z,19.80
2022-08-19T05:18:53.048Z,19.02
2022-08-19T05:22:21.143Z,19.67
2022-08-19T05:25:44.990Z,20.20
2022-08-19T05:29:07.434Z,19.38
2022-08-19T05:32:18.029Z,17.73
2022-08-19T05:35:34.768Z,18.65
2022-08-19T05:38:45.632Z,18.58
2022-08-19T05:42:03.372Z,18.63
2022-08-19T05:45:15.020Z,18.60
2022-08-19T05:48:28.370Z,20.20
2022-08-19T05:51:48.461Z,18.65
2022-08-19T05:55:13.059Z,18.70
2022-08-19T05:58:29.607Z,18.80
2022-08-19T06:01:33.970Z,20.13
2022-08-19T06:04:52.872Z,19.55
2022-08-19T06:08:14.050Z,19.67
2022-08-19T06:11:28.553Z,17.60
2022-08-19T06:14:49.339Z,17.88
2022-08-19T06:18:08.199Z,18.98
2022-08-19T06:21:24.800Z,17.95
2022-08-19T06:24:34.635Z,18.42
2022-08-19T06:28:04.877Z,18.80
2022-08-19T06:31:15.541Z,17.50
2022-08-19T06:34:38.203Z,18.95
2022-08-19T06:38:01.863Z,18.20
2022-08-19T06:41:11.178Z,18.60
2022-08-19T06:44:42.729Z,18.17
2022-08-19T06:48:00.478Z,18.75
2022-08-19T06:51:20.529Z,18.75
2022-08-19T06:54:56.557Z,17.77
2022-08-19T06:58:25.040Z,17.00
2022-08-19T07:01:51.898Z,17.23
2022-08-19T07:05:06.781Z,16.95
2022-08-19T07:08:18.175Z,18.08
2022-08-19T07:11:36.399Z,18.55
2022-08-19T07:14:50.374Z,17.83
2022-08-19T07:26:19.964Z,16.48
2022-08-19T07:29:46.733Z,17.40
2022-08-19T07:33:18.747Z,16.23
2022-08-19T07:36:36.262Z,16.20
2022-08-19T07:39:48.178Z,16.60
2022-08-19T07:43:03.988Z,16.10
2022-08-19T07:46:23.261Z,16.45
2022-08-19T07:49:35.655Z,16.20
2022-08-19T07:56:18.684Z,17.10
2022-08-19T07:59:26.412Z,16.45
2022-08-19T08:03:06.994Z,15.88
2022-08-19T08:06:33.109Z,15.32
2022-08-19T08:13:16.166Z,16.25
2022-08-19T08:16:35.493Z,14.98
2022-08-19T08:19:54.734Z,15.48
2022-08-19T08:23:17.351Z,15.30
2022-08-19T08:26:35.779Z,14.75
2022-08-19T08:29:47.611Z,15.00
2022-08-19T08:32:59.071Z,15.20
2022-08-19T08:36:15.574Z,14.82
2022-08-19T08:39:36.729Z,14.45
2022-08-19T08:42:50.109Z,14.45
2022-08-19T08:45:58.337Z,13.80
2022-08-19T08:49:09.746Z,13.73
2022-08-19T08:52:20.830Z,13.43
2022-08-19T08:55:27.599Z,14.07
2022-08-19T08:58:52.553Z,14.05
2022-08-19T09:01:57.432Z,12.63
2022-08-19T09:05:00.431Z,12.57
2022-08-19T09:08:13.708Z,12.85
2022-08-19T09:11:42.224Z,12.38
2022-08-19T09:14:51.752Z,12.55
2022-08-19T09:17:54.909Z,12.32
2022-08-19T09:20:58.141Z,11.27
2022-08-19T09:24:03.462Z,11.82
2022-08-19T09:27:18.191Z,12.00
2022-08-19T09:30:25.271Z,12.68
2022-08-19T09:33:28.092Z,10.65
2022-08-19T09:36:36.848Z,12.68
2022-08-19T09:39:43.782Z,11.05
2022-08-19T09:42:49.702Z,11.57
2022-08-19T09:45:54.456Z,11.02
2022-08-19T09:48:59.398Z,11.00
2022-08-19T09:52:11.882Z,11.98
2022-08-19T09:55:18.531Z,10.93
2022-08-19T09:58:24.746Z,10.32
2022-08-19T10:01:31.402Z,10.05
2022-08-19T10:04:48.093Z,11.18
2022-08-19T10:07:51.230Z,11.10
2022-08-19T10:10:56.361Z,10.65
2022-08-19T10:14:01.714Z,10.38
2022-08-19T10:17:17.919Z,9.68
2022-08-19T10:20:23.117Z,8.63
2022-08-19T10:23:25.831Z,9.52
2022-08-19T10:26:31.895Z,10.02
2022-08-19T10:29:35.310Z,10.52
2022-08-19T10:32:38.268Z,9.18
2022-08-19T10:35:56.931Z,9.32
2022-08-19T10:39:03.633Z,8.90
2022-08-19T10:42:11.519Z,8.75
2022-08-19T10:45:14.393Z,8.68
2022-08-19T10:48:19.574Z,9.00
2022-08-19T10:51:46.540Z,8.52
2022-08-19T10:55:08.896Z,7.82
2022-08-19T10:58:14.398Z,7.68
2022-08-19T11:01:17.163Z,7.75
2022-08-19T11:04:21.341Z,7.82
2022-08-19T11:07:27.495Z,6.75
2022-08-19T11:10:30.274Z,7.80
2022-08-19T11:13:38.296Z,7.20
2022-08-19T11:16:41.570Z,7.30
2022-08-19T11:19:44.259Z,7.30
2022-08-19T11:22:46.996Z,7.15
2022-08-19T11:25:51.651Z,6.35
2022-08-19T11:28:56.454Z,7.10
2022-08-19T11:31:59.198Z,6.88
2022-08-19T11:35:01.953Z,6.68
2022-08-19T11:38:09.404Z,6.72
2022-08-19T11:41:13.070Z,6.63
2022-08-19T11:44:17.319Z,6.68
2022-08-19T11:47:20.409Z,7.03
2022-08-19T11:50:24.267Z,6.88
2022-08-19T11:53:27.341Z,6.65
2022-08-19T11:56:30.584Z,7.15
2022-08-19T11:59:35.074Z,7.00
2022-08-19T12:02:37.802Z,6.60
2022-08-19T12:05:41.945Z,7.07
2022-08-19T12:08:46.501Z,7.43
2022-08-19T12:11:49.183Z,6.50
2022-08-19T12:14:57.449Z,6.05
2022-08-19T12:18:00.123Z,7.57
2022-08-19T12:21:02.821Z,6.93
2022-08-19T12:24:09.362Z,6.50
2022-08-19T12:27:12.550Z,6.15
2022-08-19T12:30:17.214Z,6.25
2022-08-19T12:33:24.829Z,6.05
2022-08-19T12:36:27.526Z,6.10
2022-08-19T12:39:31.430Z,5.97
2022-08-19T12:42:34.282Z,6.25
2022-08-19T12:45:38.610Z,5.93
2022-08-19T12:48:45.925Z,5.40
2022-08-19T12:51:48.632Z,5.47
2022-08-19T12:54:54.099Z,5.65
2022-08-19T12:57:57.629Z,5.43
2022-08-19T13:01:01.811Z,5.20
2022-08-19T13:04:05.050Z,5.15
2022-08-19T13:07:08.176Z,5.30
2022-08-19T13:10:13.273Z,5.50
2022-08-19T13:13:16.285Z,5.53
2022-08-19T13:16:22.851Z,5.35
2022-08-19T13:19:25.545Z,4.93
2022-08-19T13:22:28.321Z,5.30
2022-08-19T13:25:31.086Z,5.65
2022-08-19T13:28:48.889Z,4.85
2022-08-19T13:32:10.542Z,5.18
2022-08-19T13:35:19.133Z,4.95
2022-08-19T13:38:23.601Z,4.82
2022-08-19T13:41:26.336Z,7.97
2022-08-19T13:44:33.493Z,12.15
2022-08-19T13:47:45.575Z,15.65
2022-08-19T13:50:49.429Z,14.82
2022-08-19T13:53:53.119Z,17.63
2022-08-19T13:56:56.835Z,17.95
2022-08-19T14:00:02.087Z,16.92
2022-08-19T14:03:09.395Z,19.15
2022-08-19T14:06:13.183Z,18.83
2022-08-19T14:09:17.159Z,18.25
2022-08-19T14:12:28.377Z,18.90
2022-08-19T14:15:33.472Z,17.75
2022-08-19T14:18:40.978Z,19.02
2022-08-19T14:21:44.513Z,17.38
2022-08-19T14:24:49.234Z,15.77
2022-08-19T14:27:53.524Z,15.48
2022-08-19T14:30:57.538Z,17.60
2022-08-19T14:34:02.621Z,14.38
2022-08-19T14:37:07.126Z,14.82
2022-08-19T14:40:12.639Z,13.70
2022-08-19T14:43:16.564Z,13.95
2022-08-19T14:46:24.159Z,13.18
2022-08-19T14:49:34.891Z,12.90
2022-08-19T14:52:41.104Z,11.07
2022-08-19T14:55:46.051Z,10.82
2022-08-19T14:58:52.810Z,11.80
2022-08-19T15:01:56.459Z,13.02
2022-08-19T15:05:02.032Z,12.45
2022-08-19T15:08:06.603Z,11.35
2022-08-19T15:11:11.870Z,11.90
2022-08-19T15:14:16.378Z,10.73
2022-08-19T15:17:20.431Z,10.07
2022-08-19T15:20:26.587Z,9.18
2022-08-19T15:23:30.578Z,11.00
2022-08-19T15:26:34.212Z,11.45
2022-08-19T15:29:37.994Z,11.50
2022-08-19T15:32:44.273Z,13.70
2022-08-19T15:35:52.760Z,11.90
2022-08-19T15:38:57.659Z,10.40
2022-08-19T15:42:01.914Z,11.68
2022-08-19T15:45:06.179Z,11.55
2022-08-19T15:48:09.808Z,12.00
2022-08-19T15:51:15.402Z,11.30
2022-08-19T15:54:21.967Z,11.38
2022-08-19T15:57:44.100Z,11.40
2022-08-19T16:01:05.031Z,14.27
2022-08-19T16:04:33.934Z,14.52
2022-08-19T16:07:39.706Z,14.23
2022-08-19T16:10:43.625Z,14.48
2022-08-19T16:13:47.523Z,14.80
2022-08-19T16:16:51.278Z,14.98
2022-08-19T16:19:54.898Z,14.70
2022-08-19T16:23:03.621Z,14.20
2022-08-19T16:26:09.607Z,16.50
2022-08-19T16:29:13.913Z,15.95
2022-08-19T16:32:17.975Z,16.35
2022-08-19T16:35:21.741Z,16.42
2022-08-19T16:38:27.797Z,17.67
2022-08-19T16:41:33.039Z,16.27
2022-08-19T16:44:37.155Z,15.80
2022-08-19T16:47:41.177Z,16.27
2022-08-19T16:50:49.489Z,16.17
2022-08-19T16:53:55.540Z,16.38
2022-08-19T16:56:59.294Z,15.32
2022-08-19T17:00:08.746Z,15.82
2022-08-19T17:03:15.230Z,15.75
2022-08-19T17:06:22.817Z,16.38
2022-08-19T17:09:28.400Z,15.45
2022-08-19T17:12:37.624Z,16.77
2022-08-19T17:15:41.706Z,15.13
2022-08-19T17:18:45.600Z,15.80
2022-08-19T17:21:49.428Z,15.98
2022-08-19T17:24:57.884Z,15.93
2022-08-19T17:28:08.919Z,16.35
2022-08-19T17:31:12.561Z,16.88
2022-08-19T17:34:17.562Z,17.15
2022-08-19T17:37:21.510Z,16.00
2022-08-19T17:40:29.861Z,16.23
2022-08-19T17:43:38.936Z,17.98
2022-08-19T17:46:48.386Z,17.27
2022-08-19T17:49:52.181Z,17.42
2022-08-19T17:52:56.316Z,16.77
2022-08-19T17:56:02.316Z,16.13
2022-08-19T17:59:09.121Z,16.52
2022-08-19T18:02:21.420Z,16.05
2022-08-19T18:05:29.687Z,16.63
2022-08-19T18:08:34.063Z,15.93
2022-08-19T18:11:39.315Z,16.23
2022-08-19T18:14:43.479Z,14.23
2022-08-19T18:17:47.026Z,16.27
2022-08-19T18:20:50.782Z,15.18
2022-08-19T18:23:55.202Z,14.93
2022-08-19T18:27:07.307Z,13.68
2022-08-19T18:30:11.847Z,13.90
2022-08-19T18:33:15.634Z,14.02
2022-08-19T18:36:37.362Z,14.48
2022-08-19T18:40:00.604Z,12.80
2022-08-19T18:43:23.536Z,12.85
2022-08-19T18:46:44.397Z,13.40
2022-08-19T18:49:51.359Z,12.60
2022-08-19T18:52:55.107Z,12.35
2022-08-19T18:55:59.879Z,12.70
2022-08-19T18:59:05.126Z,12.55
2022-08-19T19:02:09.016Z,11.70
2022-08-19T19:05:14.442Z,12.43
2022-08-19T19:08:18.325Z,11.75
2022-08-19T19:11:26.245Z,11.60
2022-08-19T19:14:50.551Z,11.75
2022-08-19T19:17:54.778Z,11.10
2022-08-19T19:21:00.140Z,11.82
2022-08-19T19:24:04.701Z,10.80
2022-08-19T19:27:10.367Z,10.38
2022-08-19T19:30:16.318Z,11.45
2022-08-19T19:33:20.267Z,11.30
2022-08-19T19:36:24.837Z,12.07
2022-08-19T19:39:33.999Z,10.30
2022-08-19T19:42:52.214Z,10.50
2022-08-19T19:45:57.991Z,10.02
2022-08-19T19:49:01.785Z,10.30
2022-08-19T19:52:05.603Z,10.18
2022-08-19T19:55:18.534Z,10.52
2022-08-19T19:58:29.103Z,9.23
2022-08-19T20:01:34.594Z,10.20
2022-08-19T20:04:38.763Z,9.55
2022-08-19T20:08:00.943Z,9.75
2022-08-19T20:11:06.586Z,9.40
2022-08-19T20:14:12.720Z,9.13
2022-08-19T20:17:20.752Z,8.73
2022-08-19T20:20:25.086Z,9.82
2022-08-19T20:23:28.997Z,9.52
2022-08-19T20:26:34.046Z,9.60
2022-08-19T20:29:44.185Z,10.48
2022-08-19T20:32:50.438Z,10.57
2022-08-19T20:35:54.406Z,8.65
2022-08-19T20:38:58.131Z,7.63
2022-08-19T20:42:01.801Z,4.15
2022-08-19T20:45:18.008Z,3.40
2022-08-19T20:48:36.402Z,3.15
2022-08-19T20:51:39.353Z,2.63
2022-08-19T20:54:42.346Z,2.67
2022-08-19T20:57:46.619Z,2.50
2022-08-19T21:00:50.855Z,2.53
2022-08-19T21:03:54.983Z,2.47
2022-08-19T21:06:57.694Z,2.90
2022-08-19T21:10:00.474Z,2.50
2022-08-19T21:13:03.720Z,2.17
2022-08-19T21:16:09.017Z,2.22
2022-08-19T21:19:14.124Z,2.20
2022-08-19T21:22:16.835Z,2.08
2022-08-19T21:25:19.638Z,2.42
2022-08-19T21:28:34.632Z,2.00
2022-08-19T21:31:39.049Z,1.65
2022-08-19T21:34:46.575Z,1.65
2022-08-19T21:37:49.318Z,1.52
2022-08-19T21:40:52.097Z,1.65
2022-08-19T21:43:54.891Z,1.30
2022-08-19T21:46:57.609Z,1.58
2022-08-19T21:50:01.643Z,1.40
2022-08-19T21:53:04.388Z,1.25
2022-08-19T21:56:07.657Z,1.25
2022-08-19T21:59:10.400Z,1.40
2022-08-19T22:02:21.960Z,1.50
2022-08-19T22:05:27.119Z,1.67
2022-08-19T22:08:31.293Z,1.15
2022-08-19T22:11:34.582Z,1.10
2022-08-19T22:14:38.220Z,1.02
2022-08-19T22:17:41.946Z,1.45
2022-08-19T22:20:48.074Z,1.33
2022-08-19T22:23:50.774Z,1.50
2022-08-19T22:26:53.449Z,1.45
2022-08-19T22:29:56.164Z,1.48
2022-08-19T22:33:01.257Z,1.88
2022-08-19T22:36:08.337Z,1.58
2022-08-19T22:39:11.119Z,1.65
2022-08-19T22:42:13.955Z,1.35
2022-08-19T22:45:18.157Z,1.45
2022-08-19T22:48:23.286Z,1.10
2022-08-19T22:51:44.761Z,1.48
2022-08-19T22:54:49.637Z,1.30
2022-08-19T22:57:53.375Z,1.38
2022-08-19T23:00:56.276Z,1.50
2022-08-19T23:04:00.465Z,1.73
2022-08-19T23:07:08.267Z,1.20
2022-08-19T23:10:12.242Z,1.25
2022-08-19T23:13:17.222Z,1.20
2022-08-19T23:16:20.646Z,1.20
2022-08-19T23:19:23.532Z,1.17
2022-08-19T23:22:29.338Z,1.27
2022-08-19T23:25:34.170Z,1.40
2022-08-19T23:28:54.710Z,1.25
2022-08-19T23:31:57.421Z,1.10
2022-08-19T23:35:00.291Z,1.10
2022-08-19T23:38:05.811Z,1.20
2022-08-19T23:41:10.240Z,0.80
2022-08-19T23:44:14.510Z,0.80
2022-08-19T23:47:17.898Z,0.90
2022-08-19T23:50:21.900Z,0.88
2022-08-19T23:53:27.093Z,0.95
2022-08-19T23:56:29.801Z,0.90
2022-08-19T23:59:32.585Z,0.98
